West Union, Ohio
Current Conditions -  °F | °C
As of 8:15 AM on Thursday 23 Oct 2014 (Local Time) from KFGX Reporting Station
Clear Clear  
Wind Chill: 38°   Ceiling: Unl
Heat Index: 41°   Visibility: 10mi
Dew Point: 39°   Wind: 5mph
Humidity: 93%   Direction: 310°NW
Pressure: 30.27"   Gusts: NA
Location:  38.79°N, 83.55°W
Report Text: KFGX 231215Z AUTO 31004KT 10SM CLR 05/04 A3027 RMK AO2 T00510040
Loading
Personal Weather Stations






























Interactive Weather Map
Tropical Storm Tracking
New forecast layout! Learn more

10-Day Weather Forecast

Advertisements
Track Severe Weather on mobile